Time;durP1;ratioP1;P1;durP2;ratioP2;P2;SDS_P1;SDS_P2;PMS_P1;PMS_P2;Temp;Humidity;BMP_temperature;BMP_pressure;BME280_temperature;BME280_humidity;BME280_pressure;Samples;Min_cycle;Max_cycle;Signal;HPM_P1;HPM_P2
2021/10/22 00:05:28;;;;;;;10.18;1.80;;;7.70;95.90;;;;;;4727752;30;20056;-93
2021/10/22 00:12:01;;;;;;;7.68;1.30;;;7.70;96.20;;;;;;4741146;30;20152;-92
2021/10/22 00:14:41;;;;;;;7.95;1.10;;;7.70;96.30;;;;;;4786422;29;20058;-92
2021/10/22 00:17:25;;;;;;;6.38;1.00;;;7.70;96.30;;;;;;4809138;29;20055;-92
2021/10/22 00:19:56;;;;;;;10.77;1.33;;;7.70;96.30;;;;;;4793165;29;20046;-91
2021/10/22 00:23:26;;;;;;;12.82;1.73;;;7.70;96.40;;;;;;4787588;29;20065;-92
2021/10/22 00:26:25;;;;;;;10.52;1.75;;;7.60;96.30;;;;;;4784044;29;20063;-92
2021/10/22 00:28:51;;;;;;;13.30;1.90;;;7.70;96.30;;;;;;4810604;29;20494;-92
2021/10/22 00:31:45;;;;;;;10.07;1.50;;;7.70;96.40;;;;;;4808120;29;20047;-94
2021/10/22 00:38:52;;;;;;;13.02;1.70;;;7.70;96.10;;;;;;4796985;29;20062;-92
2021/10/22 00:41:25;;;;;;;9.85;1.33;;;7.70;96.20;;;;;;4805505;29;20055;-92
2021/10/22 00:44:25;;;;;;;6.35;1.10;;;7.70;96.20;;;;;;4811465;29;20042;-93
2021/10/22 00:47:27;;;;;;;9.90;1.50;;;7.70;96.10;;;;;;4806578;29;20066;-92
2021/10/22 00:50:03;;;;;;;9.30;1.38;;;7.70;96.10;;;;;;4735795;30;20071;-92
2021/10/22 00:53:36;;;;;;;;;;;;;;;;;;;;;
2021/10/22 00:56:47;;;;;;;13.43;1.30;;;7.70;96.20;;;;;;4719237;30;20091;-93
2021/10/22 00:59:46;;;;;;;9.75;1.50;;;7.70;96.30;;;;;;4777075;29;20047;-93
2021/10/22 01:02:46;;;;;;;9.43;1.73;;;7.70;96.30;;;;;;4794298;29;20439;-94
2021/10/22 01:05:21;;;;;;;8.20;1.38;;;7.70;96.30;;;;;;4793829;29;20059;-93
2021/10/22 01:08:16;;;;;;;11.90;1.70;;;7.80;96.40;;;;;;4778813;30;20054;-88
2021/10/22 01:10:51;;;;;;;7.97;1.40;;;7.80;96.30;;;;;;4787369;29;20058;-93
2021/10/22 01:13:40;;;;;;;9.63;1.42;;;7.80;96.40;;;;;;4793849;29;20047;-93
2021/10/22 01:16:40;;;;;;;15.40;1.92;;;7.80;96.20;;;;;;4784889;29;20051;-92
2021/10/22 01:19:43;;;;;;;8.05;1.42;;;7.80;96.30;;;;;;4791258;29;20059;-93
2021/10/22 01:22:27;;;;;;;12.05;1.92;;;7.80;96.30;;;;;;4776843;30;20047;-93
2021/10/22 01:24:53;;;;;;;10.48;1.63;;;7.80;96.30;;;;;;4778883;29;20073;-92
2021/10/22 01:30:59;;;;;;;7.85;1.50;;;7.90;96.10;;;;;;4726680;30;20063;-92
2021/10/22 01:36:44;;;;;;;14.02;1.60;;;7.90;96.20;;;;;;4732040;30;20060;-93
2021/10/22 01:43:05;;;;;;;8.60;1.50;;;7.90;96.10;;;;;;4745155;30;20051;-93
2021/10/22 01:46:02;;;;;;;;;;;7.90;96.10;;;;;;4759332;29;20063;-92
2021/10/22 01:48:47;;;;;;;10.25;1.35;;;7.80;95.80;;;;;;4785226;29;19974;-92
2021/10/22 01:51:26;;;;;;;8.85;1.70;;;7.80;96.00;;;;;;4782397;29;20074;-92
2021/10/22 01:54:55;;;;;;;10.88;1.63;;;7.80;96.20;;;;;;4733708;30;20115;-94
2021/10/22 01:57:42;;;;;;;11.45;1.90;;;7.80;96.00;;;;;;4688896;30;20147;-92
2021/10/22 02:00:38;;;;;;;6.50;1.50;;;7.80;96.20;;;;;;4727274;30;20064;-94
2021/10/22 02:03:23;;;;;;;11.60;1.92;;;7.80;96.10;;;;;;4729941;30;20506;-93
2021/10/22 02:06:06;;;;;;;13.65;1.95;;;7.80;96.20;;;;;;4737401;30;20097;-93
2021/10/22 02:08:44;;;;;;;11.18;1.95;;;7.70;96.00;;;;;;4742253;30;20126;-93
2021/10/22 02:12:01;;;;;;;9.05;1.40;;;7.80;96.00;;;;;;4747378;29;20895;-93
2021/10/22 02:14:28;;;;;;;7.80;1.70;;;7.70;96.40;;;;;;4761345;30;20063;-94
2021/10/22 02:17:03;;;;;;;7.10;1.30;;;7.70;96.30;;;;;;4795980;29;20059;-92
2021/10/22 02:20:02;;;;;;;8.93;1.50;;;7.70;96.30;;;;;;4806696;29;20410;-93
2021/10/22 02:22:47;;;;;;;12.73;1.80;;;7.70;96.10;;;;;;4805541;29;20412;-91
2021/10/22 02:27:47;;;;;;;14.23;2.33;;;7.80;96.30;;;;;;4831734;24;20062;-91
2021/10/22 02:30:12;;;;;;;13.82;2.00;;;7.80;96.30;;;;;;4811233;29;20058;-92
2021/10/22 02:32:38;;;;;;;10.77;1.83;;;7.80;96.30;;;;;;4811568;29;20046;-90
2021/10/22 02:35:04;;;;;;;8.77;1.83;;;7.90;96.20;;;;;;4810360;29;20420;-90
2021/10/22 02:37:30;;;;;;;12.77;1.52;;;7.80;96.20;;;;;;4811147;29;20042;-92
2021/10/22 02:39:56;;;;;;;10.30;1.60;;;7.90;96.30;;;;;;4795948;29;20568;-93
2021/10/22 02:42:21;;;;;;;9.45;1.50;;;7.90;96.30;;;;;;4793497;29;20083;-91
2021/10/22 02:44:47;;;;;;;12.93;1.95;;;7.90;96.20;;;;;;4793214;29;20423;-91
2021/10/22 02:47:12;;;;;;;10.65;1.50;;;7.90;96.20;;;;;;4794237;29;20141;-90
2021/10/22 02:49:38;;;;;;;11.40;1.60;;;7.90;96.20;;;;;;4794889;29;20061;-92
2021/10/22 02:52:04;;;;;;;11.98;1.70;;;7.90;96.20;;;;;;4793209;29;20043;-92
2021/10/22 02:54:30;;;;;;;10.55;1.40;;;7.90;96.30;;;;;;4793975;29;20496;-92
2021/10/22 02:56:56;;;;;;;11.35;1.77;;;7.90;96.40;;;;;;4803660;29;20147;-92
2021/10/22 02:59:21;;;;;;;10.52;1.60;;;7.90;96.30;;;;;;4802580;29;20047;-92
2021/10/22 03:01:47;;;;;;;7.32;1.27;;;7.90;96.30;;;;;;4793623;29;20069;-92
2021/10/22 03:04:13;;;;;;;10.10;1.58;;;7.90;96.30;;;;;;4793235;29;20058;-92
2021/10/22 03:06:38;;;;;;;11.82;1.88;;;7.90;96.30;;;;;;4793412;29;20116;-92
2021/10/22 03:09:04;;;;;;;12.27;1.40;;;7.90;96.60;;;;;;4797016;29;20082;-91
2021/10/22 03:11:30;;;;;;;11.32;1.67;;;7.90;96.20;;;;;;4793289;29;20457;-93
2021/10/22 03:13:55;;;;;;;10.50;1.73;;;7.90;96.30;;;;;;4793975;29;20109;-93
2021/10/22 03:16:21;;;;;;;9.30;1.58;;;7.90;96.30;;;;;;4794916;29;20388;-93
2021/10/22 03:18:48;;;;;;;11.45;1.83;;;7.90;96.30;;;;;;4936184;24;20058;-92
2021/10/22 03:21:52;;;;;;;12.82;1.73;;;7.90;96.30;;;;;;4747773;29;20050;-91
2021/10/22 03:28:27;;;;;;;;;;;7.90;96.30;;;;;;4730635;30;20563;-91
2021/10/22 03:35:45;;;;;;;12.73;2.00;;;7.90;96.40;;;;;;4735098;30;20113;-93
2021/10/22 03:38:46;;;;;;;18.15;2.10;;;7.90;96.40;;;;;;4752663;29;20120;-92
2021/10/22 03:45:42;;;;;;;9.85;1.73;;;8.00;96.40;;;;;;4808774;29;20095;-90
2021/10/22 03:48:22;;;;;;;11.57;1.80;;;8.10;96.50;;;;;;4793514;29;20058;-91
2021/10/22 03:50:48;;;;;;;13.95;2.10;;;8.10;96.40;;;;;;4792053;29;20057;-90
2021/10/22 03:53:23;;;;;;;12.90;1.80;;;8.20;96.50;;;;;;4792142;29;20137;-91
2021/10/22 03:55:49;;;;;;;18.95;2.85;;;8.20;96.50;;;;;;4792888;29;20076;-93
2021/10/22 03:58:51;;;;;;;12.63;1.92;;;8.20;96.50;;;;;;4792828;29;20086;-94
2021/10/22 04:01:45;;;;;;;10.10;1.95;;;8.30;96.50;;;;;;4747466;29;20449;-93
2021/10/22 04:04:52;;;;;;;13.52;2.13;;;8.30;96.30;;;;;;4792760;29;20126;-92
2021/10/22 04:07:46;;;;;;;11.85;2.13;;;8.40;96.40;;;;;;4773960;29;20413;-91
2021/10/22 04:10:44;;;;;;;16.15;2.20;;;8.40;96.40;;;;;;4789533;29;20400;-89
2021/10/22 04:13:38;;;;;;;13.93;1.95;;;8.50;96.40;;;;;;4758370;30;20061;-91
2021/10/22 04:16:25;;;;;;;11.95;2.08;;;8.50;96.50;;;;;;4788533;29;20062;-92
2021/10/22 04:18:55;;;;;;;12.55;1.92;;;8.50;96.60;;;;;;4779985;29;20062;-91
2021/10/22 04:21:47;;;;;;;14.90;2.30;;;8.50;96.60;;;;;;4791735;29;20083;-92
2021/10/22 04:24:44;;;;;;;12.20;1.83;;;8.50;96.60;;;;;;4716272;30;20064;-91
2021/10/22 04:32:48;;;;;;;15.73;2.13;;;8.50;96.80;;;;;;4977925;24;20062;-93
2021/10/22 04:35:14;;;;;;;14.40;1.58;;;8.50;96.70;;;;;;4809263;29;20046;-92
2021/10/22 04:42:59;;;;;;;9.40;1.73;;;8.60;96.70;;;;;;4808975;29;20187;-93
2021/10/22 04:45:25;;;;;;;13.82;1.80;;;8.60;96.70;;;;;;4803832;29;20086;-93
2021/10/22 04:47:51;;;;;;;11.68;1.70;;;8.60;96.70;;;;;;4794536;29;20136;-92
2021/10/22 04:50:16;;;;;;;11.65;1.88;;;8.60;96.70;;;;;;4801850;29;20055;-92
2021/10/22 04:52:42;;;;;;;8.63;1.60;;;8.60;96.70;;;;;;4806273;29;20492;-92
2021/10/22 04:55:09;;;;;;;10.65;1.60;;;8.60;97.00;;;;;;4797844;29;20113;-92
2021/10/22 04:57:38;;;;;;;10.68;1.77;;;8.70;96.60;;;;;;4800521;29;20077;-93
2021/10/22 05:00:05;;;;;;;12.18;1.75;;;8.70;96.50;;;;;;4809208;29;20050;-89
2021/10/22 05:02:33;;;;;;;11.30;1.50;;;8.70;96.40;;;;;;4800083;29;20050;-94
2021/10/22 05:04:59;;;;;;;7.40;1.40;;;8.70;96.40;;;;;;4810261;29;20115;-94
2021/10/22 05:07:24;;;;;;;9.77;1.73;;;8.70;96.40;;;;;;4809313;29;20507;-80
2021/10/22 05:09:50;;;;;;;13.18;1.60;;;8.70;96.40;;;;;;4808313;29;20380;-81
2021/10/22 05:12:18;;;;;;;11.20;1.50;;;8.70;96.40;;;;;;4808413;29;20058;-81
2021/10/22 05:14:50;;;;;;;12.60;1.83;;;8.70;96.40;;;;;;4808475;29;20469;-81
2021/10/22 05:18:25;;;;;;;11.05;1.67;;;8.70;96.40;;;;;;4804763;29;20403;-91
2021/10/22 05:20:50;;;;;;;10.68;1.63;;;8.70;96.40;;;;;;4753486;29;20134;-91
2021/10/22 05:23:34;;;;;;;10.45;1.70;;;8.70;96.50;;;;;;4806352;29;20081;-91
2021/10/22 05:25:59;;;;;;;10.25;1.48;;;8.70;96.50;;;;;;4807918;29;20069;-90
2021/10/22 05:28:31;;;;;;;13.63;1.90;;;8.70;96.50;;;;;;4795392;29;20492;-91
2021/10/22 05:30:58;;;;;;;8.85;1.45;;;8.70;96.50;;;;;;4791051;29;20141;-91
2021/10/22 05:33:26;;;;;;;9.63;1.70;;;8.70;96.60;;;;;;4815491;29;20108;-91
2021/10/22 05:35:58;;;;;;;11.27;1.75;;;8.70;96.60;;;;;;4791974;29;20483;-92
2021/10/22 05:38:27;;;;;;;9.88;1.40;;;8.70;96.50;;;;;;4791317;29;20054;-92
2021/10/22 05:40:52;;;;;;;9.43;1.80;;;8.70;96.50;;;;;;4791674;29;20051;-91
2021/10/22 05:43:24;;;;;;;10.02;1.80;;;8.70;96.50;;;;;;4801798;29;20042;-90
2021/10/22 05:45:50;;;;;;;13.90;2.00;;;8.70;96.50;;;;;;4792381;29;20082;-92
2021/10/22 05:48:19;;;;;;;10.93;1.65;;;8.70;96.40;;;;;;4805695;29;20100;-92
2021/10/22 05:50:44;;;;;;;8.73;1.60;;;8.80;96.30;;;;;;4798658;29;20068;-89
2021/10/22 05:53:19;;;;;;;9.75;1.70;;;8.80;96.20;;;;;;4809326;29;20456;-90
2021/10/22 05:56:00;;;;;;;;;;;;;;;;;;;;;
2021/10/22 05:58:55;;;;;;;;;;;;;;;;;;;;;
2021/10/22 06:01:24;;;;;;;10.60;1.60;;;8.80;95.90;;;;;;4794576;29;20082;-91
2021/10/22 06:03:50;;;;;;;8.63;1.80;;;8.90;95.70;;;;;;4794070;29;20081;-79
2021/10/22 06:06:16;;;;;;;8.20;1.63;;;8.90;95.60;;;;;;4808776;29;20057;-80
2021/10/22 06:08:42;;;;;;;11.82;1.60;;;8.90;95.50;;;;;;4813299;29;20130;-82
2021/10/22 06:11:11;;;;;;;10.95;1.63;;;8.90;95.50;;;;;;4795837;29;20085;-94
2021/10/22 06:13:37;;;;;;;7.88;1.80;;;9.00;95.50;;;;;;4796371;29;20094;-92
2021/10/22 06:16:03;;;;;;;11.02;1.77;;;9.00;95.50;;;;;;4795700;29;20069;-93
2021/10/22 06:18:29;;;;;;;9.10;1.80;;;9.00;95.60;;;;;;4796163;29;20069;-94
2021/10/22 06:21:01;;;;;;;11.95;2.10;;;9.00;95.60;;;;;;4795764;29;20047;-93
2021/10/22 06:26:10;;;;;;;16.83;2.15;;;9.00;95.70;;;;;;4796431;29;20047;-92
2021/10/22 06:28:36;;;;;;;10.00;2.05;;;9.00;95.80;;;;;;4795657;29;20043;-94
2021/10/22 06:31:02;;;;;;;10.35;1.75;;;9.00;95.80;;;;;;4795753;29;20500;-92
2021/10/22 06:33:28;;;;;;;12.18;1.98;;;9.00;95.90;;;;;;4796042;29;20205;-93
2021/10/22 06:35:54;;;;;;;15.10;2.45;;;9.00;96.00;;;;;;4795297;29;20055;-93
2021/10/22 06:38:21;;;;;;;10.00;1.73;;;9.00;96.00;;;;;;4794766;29;20051;-93
2021/10/22 06:40:47;;;;;;;10.95;2.15;;;9.00;96.10;;;;;;4795576;29;20047;-92
2021/10/22 06:43:16;;;;;;;14.20;1.88;;;9.00;96.10;;;;;;4794690;29;20137;-92
2021/10/22 06:45:42;;;;;;;14.15;2.25;;;9.00;96.10;;;;;;4794926;29;20062;-92
2021/10/22 06:48:07;;;;;;;19.23;2.47;;;9.00;96.20;;;;;;4794709;29;20054;-94
2021/10/22 06:50:33;;;;;;;11.98;2.10;;;9.00;96.20;;;;;;4794403;29;20517;-95
2021/10/22 06:52:59;;;;;;;14.82;2.03;;;9.00;96.20;;;;;;4794906;29;20407;-93
2021/10/22 06:55:24;;;;;;;9.75;2.08;;;9.00;96.20;;;;;;4794863;29;20043;-94
2021/10/22 06:57:50;;;;;;;13.60;2.13;;;9.00;96.20;;;;;;4794419;29;20050;-93
2021/10/22 07:00:15;;;;;;;11.45;1.80;;;9.00;96.10;;;;;;4794125;29;20059;-94
2021/10/22 07:02:52;;;;;;;8.80;1.58;;;9.00;96.10;;;;;;4794150;29;20047;-93
2021/10/22 07:07:59;;;;;;;14.73;1.92;;;9.00;96.00;;;;;;4794243;29;20134;-93
2021/10/22 07:10:24;;;;;;;9.88;1.73;;;9.10;95.90;;;;;;4794623;29;20042;-92
2021/10/22 07:12:51;;;;;;;10.65;1.75;;;9.00;95.80;;;;;;4795173;29;20051;-93
2021/10/22 07:15:17;;;;;;;9.02;1.55;;;9.10;95.90;;;;;;4794770;29;20046;-93
2021/10/22 07:17:45;;;;;;;10.30;2.03;;;9.10;95.90;;;;;;4794518;29;20142;-92
2021/10/22 07:20:13;;;;;;;12.38;1.88;;;9.10;95.80;;;;;;4793998;29;20104;-93
2021/10/22 07:22:48;;;;;;;14.50;2.08;;;9.20;95.80;;;;;;4794091;29;20086;-94
2021/10/22 07:25:18;;;;;;;12.90;1.70;;;9.20;95.80;;;;;;4793422;29;20137;-93
2021/10/22 07:27:44;;;;;;;7.63;1.63;;;9.20;95.80;;;;;;4794075;29;20068;-94
2021/10/22 07:30:10;;;;;;;12.25;1.63;;;9.30;95.80;;;;;;4794144;29;20051;-95
2021/10/22 07:32:36;;;;;;;12.05;1.88;;;9.30;95.80;;;;;;4793909;29;20070;-93
2021/10/22 07:35:06;;;;;;;11.70;1.90;;;9.30;95.60;;;;;;4794215;29;20054;-93
2021/10/22 07:37:32;;;;;;;11.85;1.80;;;9.40;95.60;;;;;;4794291;29;20051;-94
2021/10/22 07:39:58;;;;;;;12.02;1.73;;;9.40;95.50;;;;;;4793665;29;20058;-94
2021/10/22 07:42:25;;;;;;;9.80;1.77;;;9.40;95.80;;;;;;4793916;29;20058;-94
2021/10/22 07:44:55;;;;;;;10.35;1.70;;;9.40;95.60;;;;;;4793782;29;20768;-93
2021/10/22 07:47:26;;;;;;;10.18;1.60;;;9.50;95.60;;;;;;4793034;29;20114;-91
2021/10/22 07:49:54;;;;;;;9.43;1.70;;;9.50;95.70;;;;;;4792256;29;20077;-85
2021/10/22 07:52:21;;;;;;;10.05;1.77;;;9.50;95.80;;;;;;4791278;29;20055;-91
2021/10/22 07:54:48;;;;;;;12.13;1.70;;;9.50;95.90;;;;;;4792767;29;20157;-89
2021/10/22 07:57:14;;;;;;;11.40;2.00;;;9.50;96.00;;;;;;4791832;29;20047;-92
2021/10/22 07:59:39;;;;;;;12.60;2.45;;;9.50;96.10;;;;;;4791903;29;20047;-94
2021/10/22 08:02:07;;;;;;;12.43;2.10;;;9.50;96.20;;;;;;4792548;29;20043;-92
2021/10/22 08:04:32;;;;;;;14.75;2.05;;;9.50;96.40;;;;;;4791992;29;20125;-92
2021/10/22 08:06:58;;;;;;;9.75;1.98;;;9.50;96.50;;;;;;4792121;29;20046;-92
2021/10/22 08:09:23;;;;;;;12.00;1.85;;;9.50;96.60;;;;;;4803397;29;20061;-86
2021/10/22 08:11:49;;;;;;;14.90;2.35;;;9.50;96.70;;;;;;4809431;29;20054;-88
2021/10/22 08:14:15;;;;;;;17.67;2.28;;;9.50;96.70;;;;;;4808924;29;20058;-91
2021/10/22 08:16:40;;;;;;;14.27;2.30;;;9.50;96.80;;;;;;4809282;29;20137;-89
2021/10/22 08:19:06;;;;;;;13.15;2.05;;;9.50;96.90;;;;;;4809181;29;20046;-89
2021/10/22 08:21:56;;;;;;;14.48;2.10;;;9.50;96.90;;;;;;4809432;29;20050;-91
2021/10/22 08:24:20;;;;;;;12.98;2.10;;;9.50;97.00;;;;;;4809443;29;20077;-92
2021/10/22 08:26:46;;;;;;;11.25;2.00;;;9.50;97.00;;;;;;4809483;29;20495;-91
2021/10/22 08:29:11;;;;;;;11.23;1.85;;;9.50;97.10;;;;;;4809291;29;20403;-89
2021/10/22 08:31:37;;;;;;;12.13;1.80;;;9.50;97.10;;;;;;4809538;29;20408;-91
2021/10/22 08:34:03;;;;;;;15.45;2.15;;;9.60;97.20;;;;;;4824565;29;20050;-93
2021/10/22 08:36:28;;;;;;;12.90;2.40;;;9.50;97.10;;;;;;4810521;29;20062;-92
2021/10/22 08:38:54;;;;;;;10.88;1.52;;;9.50;97.00;;;;;;4810303;29;20061;-93
2021/10/22 08:41:22;;;;;;;9.82;1.20;;;9.50;97.00;;;;;;4810380;29;20046;-94
2021/10/22 08:43:52;;;;;;;10.75;1.60;;;9.60;97.00;;;;;;4810659;29;20119;-93
2021/10/22 08:46:21;;;;;;;10.15;1.85;;;9.60;97.00;;;;;;4810708;29;20114;-93
2021/10/22 08:48:46;;;;;;;11.88;1.73;;;9.60;97.00;;;;;;4810647;29;20487;-93
2021/10/22 08:51:18;;;;;;;11.57;1.67;;;9.70;97.00;;;;;;4811430;29;20041;-95
2021/10/22 08:53:45;;;;;;;9.38;1.55;;;9.70;97.00;;;;;;4811024;29;20488;-93
2021/10/22 08:56:11;;;;;;;15.70;2.47;;;9.80;97.00;;;;;;4810066;29;20038;-91
2021/10/22 08:58:36;;;;;;;15.43;2.05;;;9.80;97.10;;;;;;4809758;29;20053;-89
2021/10/22 09:01:02;;;;;;;17.17;2.47;;;9.80;97.10;;;;;;4808791;29;20054;-85
2021/10/22 09:03:37;;;;;;;12.55;2.05;;;9.80;97.20;;;;;;4808669;29;20057;-87
2021/10/22 09:06:09;;;;;;;12.23;2.00;;;9.90;97.30;;;;;;4808892;29;20456;-85
2021/10/22 09:08:39;;;;;;;13.05;2.38;;;9.90;97.40;;;;;;4809742;29;20077;-89
2021/10/22 09:11:17;;;;;;;9.68;1.70;;;9.90;97.40;;;;;;4808985;29;20073;-90
2021/10/22 09:13:43;;;;;;;8.60;1.83;;;9.80;97.30;;;;;;4809314;29;20504;-92
2021/10/22 09:16:22;;;;;;;11.70;1.80;;;9.90;97.30;;;;;;4809488;29;20132;-90
2021/10/22 09:18:50;;;;;;;16.25;2.88;;;9.80;97.20;;;;;;4809710;29;20060;-91
2021/10/22 09:21:32;;;;;;;15.07;2.35;;;9.90;97.30;;;;;;4809575;29;20058;-92
2021/10/22 09:24:18;;;;;;;12.20;2.13;;;9.90;97.30;;;;;;4809724;29;20046;-92
2021/10/22 09:26:52;;;;;;;9.90;1.88;;;9.90;97.30;;;;;;4810470;29;20057;-94
2021/10/22 09:29:20;;;;;;;10.55;2.00;;;9.90;97.30;;;;;;4809525;29;20050;-94
2021/10/22 09:31:47;;;;;;;12.82;1.77;;;9.80;97.20;;;;;;4809062;29;20054;-89
2021/10/22 09:34:31;;;;;;;12.18;2.08;;;9.90;97.10;;;;;;4808411;29;20085;-92
2021/10/22 09:36:59;;;;;;;;;;;9.80;97.10;;;;;;4810023;29;20074;-94
2021/10/22 09:39:25;;;;;;;14.82;1.70;;;9.80;96.90;;;;;;4808681;29;20293;-89
2021/10/22 09:42:00;;;;;;;10.73;1.80;;;9.80;97.10;;;;;;4809323;29;20053;-91
2021/10/22 09:44:30;;;;;;;14.82;2.50;;;9.80;97.10;;;;;;4809101;29;20054;-93
2021/10/22 09:47:05;;;;;;;13.52;2.92;;;9.80;97.10;;;;;;4809101;29;20100;-93
2021/10/22 09:49:46;;;;;;;15.13;4.70;;;9.80;97.10;;;;;;4809008;29;20053;-92
2021/10/22 09:52:13;;;;;;;12.85;2.80;;;9.80;97.10;;;;;;4808545;29;20054;-91
2021/10/22 09:54:39;;;;;;;11.13;2.10;;;9.80;97.10;;;;;;4808822;29;20130;-90
2021/10/22 09:57:07;;;;;;;10.07;2.10;;;9.80;97.00;;;;;;4808689;29;20459;-92
2021/10/22 09:59:32;;;;;;;12.52;2.10;;;9.80;96.90;;;;;;4808655;29;20050;-94
2021/10/22 10:02:03;;;;;;;9.95;2.05;;;9.80;96.90;;;;;;4808413;29;20050;-90
2021/10/22 10:04:29;;;;;;;10.10;1.98;;;9.80;97.00;;;;;;4809350;29;20117;-92
2021/10/22 10:06:56;;;;;;;15.90;2.00;;;9.90;97.00;;;;;;4808500;29;20195;-92
2021/10/22 10:09:22;;;;;;;10.63;1.85;;;9.90;97.00;;;;;;4809035;29;20043;-92
2021/10/22 10:11:53;;;;;;;15.15;2.28;;;10.00;97.00;;;;;;4809025;29;20053;-93
2021/10/22 10:14:22;;;;;;;14.13;2.15;;;10.00;96.90;;;;;;4808872;29;20053;-94
2021/10/22 10:16:49;;;;;;;16.23;2.17;;;10.10;97.00;;;;;;4809454;29;20446;-92
2021/10/22 10:19:21;;;;;;;11.30;1.80;;;10.10;97.10;;;;;;4801265;29;20057;-90
2021/10/22 10:22:02;;;;;;;13.27;2.13;;;10.20;97.00;;;;;;4808503;29;20086;-84
2021/10/22 10:24:34;;;;;;;12.13;1.70;;;10.20;97.00;;;;;;4797885;29;20131;-86
2021/10/22 10:27:23;;;;;;;11.95;2.00;;;10.20;97.00;;;;;;4785961;29;20442;-89
2021/10/22 10:29:55;;;;;;;12.32;1.85;;;10.20;96.90;;;;;;4802998;29;20125;-85
2021/10/22 10:32:30;;;;;;;10.75;1.58;;;10.20;97.00;;;;;;4794623;29;20453;-84
2021/10/22 10:35:03;;;;;;;11.35;1.77;;;10.20;97.10;;;;;;4798894;29;20389;-85
2021/10/22 10:37:32;;;;;;;13.75;2.05;;;10.20;97.10;;;;;;4793403;29;20046;-85
2021/10/22 10:40:07;;;;;;;11.80;2.10;;;10.20;97.10;;;;;;4801467;29;20050;-87
2021/10/22 10:42:45;;;;;;;13.38;1.98;;;10.10;97.20;;;;;;4796696;29;20107;-86
2021/10/22 10:45:26;;;;;;;9.20;1.60;;;10.10;97.20;;;;;;4792545;29;20061;-87
2021/10/22 10:47:56;;;;;;;10.23;1.75;;;10.10;97.20;;;;;;4807383;29;20042;-88
2021/10/22 10:56:19;;;;;;;11.85;2.20;;;10.00;97.20;;;;;;4788678;24;20066;-89
2021/10/22 10:58:46;;;;;;;12.82;2.28;;;10.00;97.20;;;;;;4786355;24;20150;-90
2021/10/22 11:04:59;;;;;;;12.32;1.92;;;10.00;97.30;;;;;;4792329;29;20054;-91
2021/10/22 11:07:46;;;;;;;16.17;2.47;;;10.00;97.40;;;;;;4790149;29;20035;-93
2021/10/22 11:10:59;;;;;;;10.45;2.08;;;10.00;97.50;;;;;;4791961;29;20109;-89
2021/10/22 11:13:42;;;;;;;11.85;2.03;;;10.10;97.60;;;;;;4775819;30;20059;-93
2021/10/22 11:16:49;;;;;;;14.95;2.45;;;10.10;97.70;;;;;;4784402;29;20047;-93
2021/10/22 11:19:36;;;;;;;15.25;2.20;;;10.10;97.60;;;;;;4792863;29;20077;-91
2021/10/22 11:22:23;;;;;;;13.10;1.98;;;10.10;97.70;;;;;;4758665;29;20090;-94
2021/10/22 11:25:02;;;;;;;13.55;1.90;;;10.20;97.70;;;;;;4792826;29;20077;-94
2021/10/22 11:27:39;;;;;;;18.73;2.05;;;10.20;97.80;;;;;;4793253;29;20151;-93
2021/10/22 11:30:05;;;;;;;12.77;1.65;;;10.20;97.90;;;;;;4793247;29;20050;-94
2021/10/22 11:32:46;;;;;;;12.73;2.00;;;10.30;97.80;;;;;;4793962;29;20054;-93
2021/10/22 11:35:29;;;;;;;14.40;2.25;;;10.30;97.80;;;;;;4793276;29;20038;-91
2021/10/22 11:38:26;;;;;;;15.82;2.20;;;10.40;97.90;;;;;;4792531;29;20047;-93
2021/10/22 11:40:53;;;;;;;15.85;2.00;;;10.40;98.00;;;;;;4791592;29;20496;-91
2021/10/22 11:44:07;;;;;;;12.65;2.20;;;10.50;98.10;;;;;;4807054;29;20050;-91
2021/10/22 11:46:46;;;;;;;17.88;2.42;;;10.60;98.00;;;;;;4739700;30;20099;-86
2021/10/22 11:49:45;;;;;;;10.70;2.30;;;10.60;97.80;;;;;;4747823;30;20145;-88
2021/10/22 11:56:26;;;;;;;11.65;2.15;;;10.60;97.30;;;;;;4723330;30;20060;-89
2021/10/22 11:59:01;;;;;;;9.40;1.83;;;10.50;97.10;;;;;;4736713;30;20507;-93
2021/10/22 12:01:40;;;;;;;8.88;1.85;;;10.40;97.00;;;;;;4720838;30;20056;-93
2021/10/22 12:05:24;;;;;;;8.55;1.50;;;10.40;96.90;;;;;;4788466;29;20057;-93
2021/10/22 12:09:03;;;;;;;8.20;1.60;;;10.30;96.70;;;;;;4963020;24;20042;-92
2021/10/22 12:19:37;;;;;;;;;;;;;;;;;;;;;
2021/10/22 12:30:14;;;;;;;7.10;1.20;;;10.30;96.40;;;;;;4709811;24;20109;-94
2021/10/22 12:39:52;;;;;;;9.95;1.60;;;10.40;95.90;;;;;;4964815;24;20032;31
2021/10/22 12:43:29;;;;;;;8.75;1.27;;;10.50;95.90;;;;;;4793275;29;20110;-93
2021/10/22 12:46:28;;;;;;;8.32;1.10;;;10.50;95.50;;;;;;4801681;29;20058;-92
2021/10/22 13:21:50;;;;;;;16.95;2.25;;;10.80;95.50;;;;;;4688704;30;20087;-92
2021/10/22 13:24:40;;;;;;;12.60;2.03;;;10.80;95.50;;;;;;4698260;30;20438;-91
2021/10/22 13:27:41;;;;;;;10.55;1.90;;;10.80;95.40;;;;;;4684903;30;20732;-91
2021/10/22 13:33:41;;;;;;;10.63;2.38;;;10.80;95.10;;;;;;4646760;30;20625;-92
2021/10/22 13:36:19;;;;;;;13.55;2.03;;;10.80;94.80;;;;;;4728853;30;20099;-91
2021/10/22 13:38:48;;;;;;;15.18;2.22;;;10.80;94.80;;;;;;4736916;30;20064;-91
2021/10/22 13:41:44;;;;;;;10.80;1.90;;;10.80;94.70;;;;;;4736058;30;20052;-91
2021/10/22 13:48:39;;;;;;;;;;;;;;;;;;;;;
2021/10/22 13:51:22;;;;;;;15.18;1.92;;;10.80;94.50;;;;;;4736735;30;20064;-91
2021/10/22 13:54:02;;;;;;;13.38;2.40;;;10.90;94.40;;;;;;4761682;30;20543;-91
2021/10/22 14:00:30;;;;;;;12.43;2.00;;;10.90;94.20;;;;;;4807359;29;20066;-92
2021/10/22 14:03:51;;;;;;;10.70;1.83;;;10.90;94.40;;;;;;4721348;30;20114;-92
2021/10/22 14:06:36;;;;;;;9.63;1.75;;;10.90;94.40;;;;;;4734026;30;20064;-91
2021/10/22 14:09:43;;;;;;;12.05;1.85;;;10.90;94.00;;;;;;4732700;30;20051;-92
2021/10/22 14:13:01;;;;;;;8.07;1.60;;;10.90;93.40;;;;;;4681901;30;20123;-91
2021/10/22 14:32:40;;;;;;;11.80;2.05;;;10.90;92.20;;;;;;4800113;29;20059;-91
2021/10/22 14:37:45;;;;;;;9.35;1.80;;;10.90;92.30;;;;;;5209436;24;20028;-91
2021/10/22 14:43:34;;;;;;;13.48;2.25;;;11.00;92.50;;;;;;4805197;24;20057;-81
2021/10/22 14:48:59;;;;;;;;;;;11.00;92.50;;;;;;4819642;29;20050;-81
2021/10/22 15:22:45;;;;;;;28.67;3.00;;;10.40;92.60;;;;;;5173105;24;20070;-91
2021/10/22 15:25:35;;;;;;;25.40;3.00;;;10.30;93.10;;;;;;4787856;29;20066;-92
2021/10/22 15:52:52;;;;;;;13.00;2.38;;;10.20;93.20;;;;;;3744221;24;20356;-89
2021/10/22 15:56:04;;;;;;;9.55;1.90;;;10.10;93.10;;;;;;4785490;29;20069;-92
2021/10/22 15:58:43;;;;;;;10.55;1.90;;;10.00;92.80;;;;;;4767011;30;20059;-92
2021/10/22 16:01:28;;;;;;;9.38;1.50;;;10.00;93.30;;;;;;4774484;30;20130;-94
2021/10/22 16:04:57;;;;;;;13.57;1.88;;;9.90;92.80;;;;;;4774358;29;20051;-94
2021/10/22 16:19:34;;;;;;;12.50;2.75;;;9.60;92.90;;;;;;5288911;24;20059;-93
2021/10/22 16:22:02;;;;;;;13.02;2.40;;;9.50;92.70;;;;;;4794779;29;20055;-92
2021/10/22 16:28:46;;;;;;;14.75;2.92;;;9.40;93.30;;;;;;4814769;24;20069;-93
2021/10/22 17:05:55;;;;;;;19.73;5.57;;;9.50;95.30;;;;;;5063481;24;20411;-90
2021/10/22 17:08:29;;;;;;;21.48;6.20;;;9.50;95.50;;;;;;4809981;29;20131;-90
2021/10/22 17:14:56;;;;;;;16.88;5.38;;;9.50;95.60;;;;;;4795173;24;20059;-90
2021/10/22 17:40:41;;;;;;;13.55;4.05;;;9.20;95.40;;;;;;5203856;24;20047;-94
2021/10/22 17:43:43;;;;;;;15.02;4.47;;;9.20;95.40;;;;;;4773977;29;20047;-91
2021/10/22 17:47:19;;;;;;;15.30;4.70;;;9.10;95.70;;;;;;4805948;24;20126;-94
2021/10/22 18:04:29;;;;;;;11.90;3.67;;;8.90;95.60;;;;;;5166216;24;20142;-93
2021/10/22 18:07:25;;;;;;;11.85;4.20;;;8.90;95.80;;;;;;4795648;29;20055;-93
2021/10/22 18:09:51;;;;;;;11.05;3.50;;;8.90;95.50;;;;;;4796245;29;20061;-93
2021/10/22 18:29:46;;;;;;;11.35;3.08;;;8.70;96.10;;;;;;5561371;24;20503;-93
2021/10/22 18:35:58;;;;;;;12.13;3.20;;;8.60;96.00;;;;;;5137842;24;20098;-80
2021/10/22 18:38:24;;;;;;;9.13;2.83;;;8.60;95.80;;;;;;4791325;29;20055;-90
2021/10/22 18:41:46;;;;;;;10.10;2.97;;;8.50;96.00;;;;;;4793691;29;20054;-89
2021/10/22 18:44:27;;;;;;;12.05;2.67;;;8.50;96.00;;;;;;4801588;24;20066;-88
2021/10/22 19:02:02;;;;;;;9.85;3.65;;;8.30;96.60;;;;;;5877756;24;20736;31
2021/10/22 21:28:46;;;;;;;;;;;7.10;97.40;;;;;;4793040;29;20441;-85
